createdAt,value
2023-04-23T00:02:35.819Z,11.50
2023-04-23T00:07:38.227Z,11.50
2023-04-23T00:12:41.312Z,11.40
2023-04-23T00:17:43.375Z,11.50
2023-04-23T00:22:45.509Z,11.50
2023-04-23T00:27:47.933Z,11.50
2023-04-23T00:32:50.104Z,11.60
2023-04-23T00:37:52.135Z,11.60
2023-04-23T00:42:58.183Z,11.60
2023-04-23T00:48:00.754Z,11.60
2023-04-23T00:53:03.101Z,11.60
2023-04-23T00:58:06.910Z,11.60
2023-04-23T01:03:09.230Z,11.60
2023-04-23T01:08:15.372Z,11.60
2023-04-23T01:13:17.722Z,11.60
2023-04-23T01:18:20.230Z,11.60
2023-04-23T01:23:23.913Z,11.50
2023-04-23T01:28:26.842Z,11.40
2023-04-23T01:33:29.358Z,11.50
2023-04-23T01:38:34.347Z,11.50
2023-04-23T01:43:37.216Z,11.40
2023-04-23T01:48:39.681Z,11.40
2023-04-23T01:53:41.783Z,11.30
2023-04-23T01:58:44.503Z,11.30
2023-04-23T02:03:47.565Z,11.30
2023-04-23T02:08:49.826Z,11.30
2023-04-23T02:13:51.960Z,11.30
2023-04-23T02:18:55.237Z,11.30
2023-04-23T02:23:57.509Z,11.30
2023-04-23T02:28:59.610Z,11.20
2023-04-23T02:34:01.796Z,11.00
2023-04-23T02:39:04.106Z,11.00
2023-04-23T02:44:06.305Z,10.90
2023-04-23T02:49:08.484Z,11.00
2023-04-23T02:54:11.272Z,11.00
2023-04-23T02:59:13.747Z,11.00
2023-04-23T03:04:15.981Z,10.90
2023-04-23T03:09:18.281Z,10.90
2023-04-23T03:14:20.483Z,10.90
2023-04-23T03:19:22.942Z,10.90
2023-04-23T03:24:26.097Z,10.80
2023-04-23T03:29:28.467Z,10.80
2023-04-23T03:34:30.753Z,10.80
2023-04-23T03:39:32.802Z,10.80
2023-04-23T03:44:35.285Z,10.70
2023-04-23T03:49:38.253Z,10.70
2023-04-23T03:54:41.680Z,10.70
2023-04-23T03:59:50.921Z,10.70
2023-04-23T04:04:55.135Z,10.70
2023-04-23T04:09:59.964Z,10.70
2023-04-23T04:15:03.342Z,10.70
2023-04-23T04:20:08.484Z,10.60
2023-04-23T04:25:10.549Z,10.60
2023-04-23T04:30:12.913Z,10.50
2023-04-23T04:35:15.435Z,10.50
2023-04-23T04:40:17.689Z,10.50
2023-04-23T04:45:19.890Z,10.60
2023-04-23T04:50:22.373Z,10.60
2023-04-23T04:55:24.455Z,10.50
2023-04-23T05:00:29.548Z,10.60
2023-04-23T05:05:33.118Z,10.50
2023-04-23T05:10:35.243Z,10.40
2023-04-23T05:15:37.385Z,10.40
2023-04-23T05:20:39.588Z,10.40
2023-04-23T05:25:41.745Z,10.40
2023-04-23T05:30:44.002Z,10.30
2023-04-23T05:35:46.222Z,10.30
2023-04-23T05:40:48.421Z,10.30
2023-04-23T05:45:50.539Z,10.30
2023-04-23T05:50:52.798Z,10.30
2023-04-23T05:55:54.940Z,10.30
2023-04-23T06:00:57.769Z,10.30
2023-04-23T06:06:00.118Z,10.30
2023-04-23T06:11:02.370Z,10.30
2023-04-23T06:16:04.534Z,10.30
2023-04-23T06:21:06.942Z,10.30
2023-04-23T06:26:09.097Z,10.40
2023-04-23T06:31:11.757Z,10.40
2023-04-23T06:36:14.803Z,10.50
2023-04-23T06:41:16.967Z,10.50
2023-04-23T06:46:19.078Z,10.40
2023-04-23T06:51:21.265Z,10.50
2023-04-23T06:56:23.320Z,10.50
2023-04-23T07:01:25.526Z,10.50
2023-04-23T07:06:28.004Z,10.60
2023-04-23T07:11:31.887Z,10.70
2023-04-23T07:16:34.138Z,10.80
2023-04-23T07:21:36.496Z,10.90
2023-04-23T07:26:38.673Z,10.90
2023-04-23T07:31:43.450Z,10.90
2023-04-23T07:36:45.646Z,10.80
2023-04-23T07:41:47.930Z,10.70
2023-04-23T07:46:51.068Z,10.40
2023-04-23T07:51:53.466Z,10.20
2023-04-23T07:56:57.071Z,10.00
2023-04-23T08:01:59.517Z,10.00
2023-04-23T08:07:01.534Z,10.10
2023-04-23T08:12:03.730Z,10.10
2023-04-23T08:17:05.758Z,10.10
2023-04-23T08:22:07.833Z,10.10
2023-04-23T08:27:10.630Z,10.10
2023-04-23T08:32:13.225Z,10.10
2023-04-23T08:37:27.182Z,10.00
2023-04-23T08:42:41.552Z,9.90
2023-04-23T08:47:44.382Z,10.10
2023-04-23T08:53:06.981Z,10.00
2023-04-23T08:58:09.250Z,10.00
2023-04-23T09:03:12.281Z,10.00
2023-04-23T09:08:14.633Z,10.20
2023-04-23T09:13:16.891Z,10.30
2023-04-23T09:18:20.475Z,10.20
2023-04-23T09:23:23.735Z,10.30
2023-04-23T09:28:36.345Z,10.40
2023-04-23T09:33:39.128Z,10.50
2023-04-23T09:38:44.094Z,10.40
2023-04-23T09:43:48.118Z,10.50
2023-04-23T09:48:50.769Z,10.60
2023-04-23T09:53:52.929Z,11.00
2023-04-23T09:58:55.007Z,11.50
2023-04-23T10:03:57.359Z,11.70
2023-04-23T10:08:59.697Z,11.50
2023-04-23T10:14:03.111Z,11.40
2023-04-23T10:19:07.972Z,11.40
2023-04-23T10:24:13.813Z,11.40
2023-04-23T10:29:19.273Z,11.70
2023-04-23T10:34:22.604Z,11.90
2023-04-23T10:39:44.297Z,12.10
2023-04-23T10:44:59.044Z,12.50
2023-04-23T10:50:20.812Z,12.40
2023-04-23T10:55:28.375Z,12.80
2023-04-23T11:00:46.075Z,13.10
2023-04-23T11:05:49.009Z,12.70
2023-04-23T11:11:02.061Z,12.80
2023-04-23T11:16:15.780Z,13.20
2023-04-23T11:21:19.016Z,13.10
2023-04-23T11:26:22.523Z,13.00
2023-04-23T11:31:26.462Z,13.00
2023-04-23T11:36:28.817Z,13.00
2023-04-23T11:41:30.909Z,13.40
2023-04-23T11:46:33.264Z,13.40
2023-04-23T11:51:42.077Z,13.40
2023-04-23T11:56:44.922Z,13.20
2023-04-23T12:01:51.794Z,13.00
2023-04-23T12:06:56.031Z,13.00
2023-04-23T12:11:58.765Z,13.00
2023-04-23T12:17:10.558Z,12.80
2023-04-23T12:22:12.675Z,12.80
2023-04-23T12:27:21.479Z,13.10
2023-04-23T12:32:24.922Z,13.10
2023-04-23T12:37:29.858Z,13.00
2023-04-23T12:42:31.979Z,13.00
2023-04-23T12:47:34.099Z,13.00
2023-04-23T12:52:36.362Z,13.00
2023-04-23T12:57:38.408Z,12.80
2023-04-23T13:02:40.694Z,12.50
2023-04-23T13:07:43.815Z,12.30
2023-04-23T13:12:45.907Z,12.60
2023-04-23T13:17:47.948Z,12.90
2023-04-23T13:22:50.041Z,13.30
2023-04-23T13:27:52.100Z,13.00
2023-04-23T13:32:55.625Z,13.00
2023-04-23T13:37:59.090Z,13.00
2023-04-23T13:43:01.133Z,12.90
2023-04-23T13:48:05.063Z,12.70
2023-04-23T13:53:07.162Z,12.90
2023-04-23T13:58:11.228Z,13.30
2023-04-23T14:03:14.409Z,13.20
2023-04-23T14:08:16.677Z,12.90
2023-04-23T14:13:18.810Z,12.90
2023-04-23T14:18:21.228Z,12.90
2023-04-23T14:23:23.224Z,13.00
2023-04-23T14:28:44.785Z,12.90
2023-04-23T14:33:46.987Z,12.80
2023-04-23T14:38:49.117Z,12.70
2023-04-23T14:43:51.196Z,12.50
2023-04-23T14:48:53.390Z,12.90
2023-04-23T14:53:56.668Z,13.30
2023-04-23T14:58:59.233Z,14.20
2023-04-23T15:04:01.705Z,14.50
2023-04-23T15:09:04.676Z,13.80
2023-04-23T15:14:24.871Z,13.50
2023-04-23T15:19:26.963Z,13.80
2023-04-23T15:24:29.026Z,13.50
2023-04-23T15:29:31.201Z,13.20
2023-04-23T15:34:33.273Z,13.70
2023-04-23T15:39:35.456Z,13.40
2023-04-23T15:44:37.716Z,14.00
2023-04-23T15:49:40.018Z,13.50
2023-04-23T15:54:42.310Z,13.90
2023-04-23T15:59:44.509Z,13.50
2023-04-23T16:04:46.717Z,13.10
2023-04-23T16:09:49.164Z,12.90
2023-04-23T16:14:51.239Z,12.70
2023-04-23T16:19:53.756Z,12.90
2023-04-23T16:24:55.919Z,13.30
2023-04-23T16:29:58.288Z,13.60
2023-04-23T16:35:00.549Z,14.00
2023-04-23T16:40:02.607Z,13.90
2023-04-23T16:45:05.725Z,13.80
2023-04-23T16:50:08.683Z,13.30
2023-04-23T16:55:10.864Z,13.40
2023-04-23T17:00:13.543Z,13.30
2023-04-23T17:05:15.588Z,13.10
2023-04-23T17:10:19.588Z,13.00
2023-04-23T17:15:22.866Z,13.00
2023-04-23T17:20:24.926Z,12.70
2023-04-23T17:25:27.066Z,12.50
2023-04-23T17:30:29.134Z,12.20
2023-04-23T17:35:31.232Z,12.10
2023-04-23T17:40:33.315Z,12.00
2023-04-23T17:45:35.501Z,12.20
2023-04-23T17:50:37.966Z,12.50
2023-04-23T17:55:40.046Z,12.70
2023-04-23T18:00:42.986Z,12.60
2023-04-23T18:05:45.425Z,12.30
2023-04-23T18:10:47.688Z,12.00
2023-04-23T18:15:50.215Z,11.90
2023-04-23T18:20:52.487Z,11.70
2023-04-23T18:25:54.611Z,11.50
2023-04-23T18:31:02.191Z,11.50
2023-04-23T18:36:36.514Z,11.30
2023-04-23T18:41:38.660Z,11.20
2023-04-23T18:46:41.039Z,11.10
2023-04-23T18:51:51.019Z,11.00
2023-04-23T18:56:53.934Z,10.90
2023-04-23T19:01:56.802Z,10.90
2023-04-23T19:06:59.828Z,10.80
2023-04-23T19:12:02.762Z,10.70
2023-04-23T19:17:05.073Z,10.60
2023-04-23T19:22:07.165Z,10.50
2023-04-23T19:27:09.473Z,10.40
2023-04-23T19:32:12.001Z,10.40
2023-04-23T19:37:14.196Z,10.40
2023-04-23T19:42:16.535Z,10.30
2023-04-23T19:47:18.855Z,10.30
2023-04-23T19:52:23.772Z,10.30
2023-04-23T19:57:26.840Z,10.40
2023-04-23T20:02:28.998Z,10.40
2023-04-23T20:07:31.185Z,10.40
2023-04-23T20:12:33.957Z,10.30
2023-04-23T20:17:39.361Z,10.20
2023-04-23T20:22:41.647Z,10.20
2023-04-23T20:27:43.809Z,10.20
2023-04-23T20:32:45.950Z,10.20
2023-04-23T20:37:48.004Z,10.10
2023-04-23T20:42:51.735Z,9.90
2023-04-23T20:47:54.480Z,9.80
2023-04-23T20:52:56.597Z,9.80
2023-04-23T20:57:58.636Z,9.70
2023-04-23T21:03:01.074Z,9.60
2023-04-23T21:08:03.312Z,9.60
2023-04-23T21:13:08.127Z,9.50
2023-04-23T21:18:11.403Z,9.50
2023-04-23T21:23:13.666Z,9.50
2023-04-23T21:28:16.340Z,9.60
2023-04-23T21:33:19.921Z,9.60
2023-04-23T21:38:21.933Z,9.60
2023-04-23T21:43:24.476Z,9.70
2023-04-23T21:48:26.639Z,9.70
2023-04-23T21:53:28.684Z,9.70
2023-04-23T21:58:32.578Z,9.70
2023-04-23T22:03:38.759Z,9.70
2023-04-23T22:08:44.759Z,9.70
2023-04-23T22:13:47.048Z,9.70
2023-04-23T22:18:49.248Z,9.70
2023-04-23T22:23:51.432Z,9.70
2023-04-23T22:28:53.552Z,9.70
2023-04-23T22:33:55.592Z,9.70
2023-04-23T22:38:57.708Z,9.70
2023-04-23T22:43:59.775Z,9.70
2023-04-23T22:49:02.846Z,9.80
2023-04-23T22:54:05.051Z,9.80
2023-04-23T22:59:07.960Z,9.80
2023-04-23T23:04:10.678Z,9.80
2023-04-23T23:09:13.004Z,9.80
2023-04-23T23:14:15.270Z,9.80
2023-04-23T23:19:17.520Z,9.80
2023-04-23T23:24:19.972Z,9.80
2023-04-23T23:29:22.108Z,9.80
2023-04-23T23:34:24.144Z,9.80
2023-04-23T23:39:27.455Z,9.80
2023-04-23T23:44:29.613Z,9.80
2023-04-23T23:49:31.668Z,9.80
2023-04-23T23:54:33.757Z,9.80
2023-04-23T23:59:36.477Z,9.90
